createdAt,value
2022-10-05T00:00:38.757Z,7.28
2022-10-05T00:03:41.213Z,7.31
2022-10-05T00:06:43.469Z,7.26
2022-10-05T00:09:45.389Z,7.27
2022-10-05T00:12:47.101Z,7.23
2022-10-05T00:15:48.586Z,7.21
2022-10-05T00:18:51.889Z,7.23
2022-10-05T00:21:53.289Z,7.22
2022-10-05T00:25:01.715Z,7.20
2022-10-05T00:28:03.159Z,7.19
2022-10-05T00:31:07.489Z,7.14
2022-10-05T00:34:08.821Z,7.06
2022-10-05T00:37:10.201Z,7.03
2022-10-05T00:40:20.617Z,7.02
2022-10-05T00:43:27.970Z,7.01
2022-10-05T00:46:29.282Z,7.00
2022-10-05T00:49:49.464Z,7.02
2022-10-05T00:53:06.143Z,6.96
2022-10-05T00:56:11.804Z,6.96
2022-10-05T00:59:28.215Z,6.95
2022-10-05T01:02:34.380Z,6.90
2022-10-05T01:05:45.337Z,6.86
2022-10-05T01:08:52.801Z,6.89
2022-10-05T01:12:10.849Z,6.92
2022-10-05T01:15:12.149Z,6.91
2022-10-05T01:18:24.972Z,6.86
2022-10-05T01:21:26.505Z,6.84
2022-10-05T01:24:30.912Z,6.89
2022-10-05T01:27:35.321Z,6.87
2022-10-05T01:30:38.023Z,6.80
2022-10-05T01:33:45.431Z,6.82
2022-10-05T01:36:56.607Z,6.87
2022-10-05T01:40:01.102Z,6.86
2022-10-05T01:43:10.819Z,6.88
2022-10-05T01:46:15.319Z,6.76
2022-10-05T01:49:31.943Z,6.70
2022-10-05T01:52:51.941Z,6.70
2022-10-05T01:55:58.898Z,6.64
2022-10-05T01:59:16.272Z,6.58
2022-10-05T02:02:18.360Z,6.61
2022-10-05T02:05:20.778Z,6.57
2022-10-05T02:08:24.072Z,6.58
2022-10-05T02:11:25.419Z,6.69
2022-10-05T02:14:32.720Z,6.75
2022-10-05T02:17:38.808Z,6.77
2022-10-05T02:20:40.189Z,6.79
2022-10-05T02:23:41.587Z,6.84
2022-10-05T02:26:43.249Z,6.96
2022-10-05T02:29:45.187Z,6.96
2022-10-05T02:32:56.602Z,6.97
2022-10-05T02:36:17.268Z,6.91
2022-10-05T02:39:25.803Z,6.95
2022-10-05T02:42:31.902Z,7.01
2022-10-05T02:45:39.443Z,6.97
2022-10-05T02:48:43.823Z,6.92
2022-10-05T02:51:51.284Z,6.90
2022-10-05T02:55:02.188Z,6.84
2022-10-05T02:58:25.765Z,6.88
2022-10-05T03:01:36.044Z,6.91
2022-10-05T03:04:56.285Z,6.93
2022-10-05T03:08:05.801Z,6.89
2022-10-05T03:11:11.938Z,6.99
2022-10-05T03:14:13.469Z,6.86
2022-10-05T03:17:19.109Z,6.85
2022-10-05T03:20:23.524Z,6.85
2022-10-05T03:23:38.307Z,6.86
2022-10-05T03:26:42.844Z,6.82
2022-10-05T03:29:47.661Z,6.88
2022-10-05T03:32:58.562Z,6.88
2022-10-05T03:36:06.169Z,6.89
2022-10-05T03:39:10.755Z,6.92
2022-10-05T03:42:41.500Z,6.98
2022-10-05T03:45:48.362Z,6.97
2022-10-05T03:48:49.734Z,7.00
2022-10-05T03:51:52.819Z,6.95
2022-10-05T03:55:02.314Z,6.99
2022-10-05T03:58:06.287Z,6.89
2022-10-05T04:01:09.044Z,6.89
2022-10-05T04:04:11.551Z,6.90
2022-10-05T04:07:18.123Z,6.88
2022-10-05T04:10:21.679Z,6.89
2022-10-05T04:13:29.084Z,6.96
2022-10-05T04:16:47.407Z,6.97
2022-10-05T04:20:00.295Z,6.98
2022-10-05T04:23:12.408Z,6.98
2022-10-05T04:26:14.799Z,6.91
2022-10-05T04:29:24.718Z,6.96
2022-10-05T04:32:31.295Z,6.71
2022-10-05T04:35:51.477Z,6.76
2022-10-05T04:38:57.602Z,6.74
2022-10-05T04:42:04.483Z,6.75
2022-10-05T04:45:05.847Z,6.81
2022-10-05T04:48:26.014Z,6.86
2022-10-05T04:51:33.453Z,6.89
2022-10-05T04:55:10.437Z,6.86
2022-10-05T04:58:23.808Z,6.71
2022-10-05T05:01:48.284Z,6.80
2022-10-05T05:04:55.145Z,6.77
2022-10-05T05:08:16.740Z,6.78
2022-10-05T05:11:24.708Z,6.70
2022-10-05T05:14:29.802Z,6.71
2022-10-05T05:17:36.363Z,6.80
2022-10-05T05:20:56.709Z,6.82
2022-10-05T05:24:03.350Z,6.80
2022-10-05T05:27:23.584Z,6.85
2022-10-05T05:30:26.726Z,6.77
2022-10-05T05:33:28.043Z,6.81
2022-10-05T05:36:38.218Z,6.74
2022-10-05T05:39:54.981Z,6.69
2022-10-05T05:43:03.073Z,6.67
2022-10-05T05:46:06.313Z,6.57
2022-10-05T05:49:12.637Z,6.63
2022-10-05T05:52:16.225Z,6.55
2022-10-05T05:55:17.578Z,6.63
2022-10-05T05:58:20.695Z,6.62
2022-10-05T06:01:33.280Z,6.62
2022-10-05T06:04:43.718Z,6.56
2022-10-05T06:07:45.191Z,6.51
2022-10-05T06:10:50.720Z,6.48
2022-10-05T06:13:52.085Z,6.40
2022-10-05T06:16:56.482Z,6.49
2022-10-05T06:20:02.455Z,6.36
2022-10-05T06:23:07.583Z,6.46
2022-10-05T06:26:18.186Z,6.48
2022-10-05T06:29:20.543Z,6.56
2022-10-05T06:32:33.405Z,6.60
2022-10-05T06:35:43.910Z,6.60
2022-10-05T06:39:08.045Z,6.61
2022-10-05T06:42:28.213Z,6.69
2022-10-05T06:45:40.150Z,6.64
2022-10-05T06:48:47.380Z,6.63
2022-10-05T06:52:08.204Z,6.71
2022-10-05T06:55:23.601Z,6.85
2022-10-05T06:58:31.068Z,6.95
2022-10-05T07:01:48.189Z,7.02
2022-10-05T07:04:54.169Z,7.07
2022-10-05T07:07:57.817Z,7.17
2022-10-05T07:11:04.586Z,7.35
2022-10-05T07:14:12.293Z,7.49
2022-10-05T07:17:16.574Z,7.55
2022-10-05T07:20:20.938Z,7.74
2022-10-05T07:23:24.488Z,7.87
2022-10-05T07:26:28.025Z,7.96
2022-10-05T07:29:32.100Z,8.14
2022-10-05T07:32:39.673Z,8.36
2022-10-05T07:36:05.432Z,8.51
2022-10-05T07:39:06.780Z,8.65
2022-10-05T07:42:08.105Z,8.84
2022-10-05T07:45:28.345Z,8.95
2022-10-05T07:48:33.248Z,9.15
2022-10-05T07:51:41.577Z,9.35
2022-10-05T07:54:45.335Z,9.51
2022-10-05T07:57:46.653Z,9.67
2022-10-05T08:01:00.449Z,9.80
2022-10-05T08:04:04.869Z,9.96
2022-10-05T08:07:06.729Z,10.15
2022-10-05T08:10:23.439Z,10.34
2022-10-05T08:13:34.078Z,10.68
2022-10-05T08:16:36.078Z,10.88
2022-10-05T08:19:43.286Z,11.12
2022-10-05T08:22:49.540Z,11.37
2022-10-05T08:26:02.735Z,11.68
2022-10-05T08:29:23.224Z,12.32
2022-10-05T08:32:25.716Z,13.07
2022-10-05T08:35:27.046Z,13.45
2022-10-05T08:38:29.963Z,13.80
2022-10-05T08:41:46.658Z,14.27
2022-10-05T08:45:10.830Z,14.55
2022-10-05T08:48:19.285Z,15.25
2022-10-05T08:51:23.621Z,15.56
2022-10-05T08:54:43.761Z,15.94
2022-10-05T08:58:06.050Z,16.79
2022-10-05T09:01:10.055Z,17.08
2022-10-05T09:04:22.531Z,17.40
2022-10-05T09:07:28.614Z,18.04
2022-10-05T09:10:41.157Z,18.34
2022-10-05T09:14:04.334Z,19.00
2022-10-05T09:17:24.009Z,19.46
2022-10-05T09:20:32.187Z,20.34
2022-10-05T09:23:38.109Z,20.91
2022-10-05T09:26:48.611Z,21.40
2022-10-05T09:30:02.145Z,21.21
2022-10-05T09:33:06.561Z,21.51
2022-10-05T09:36:17.514Z,21.68
2022-10-05T09:39:21.800Z,21.14
2022-10-05T09:42:35.327Z,21.14
2022-10-05T09:45:36.693Z,21.30
2022-10-05T09:48:53.458Z,21.28
2022-10-05T09:51:54.737Z,21.15
2022-10-05T09:55:05.542Z,20.71
2022-10-05T09:58:06.871Z,21.01
2022-10-05T10:01:33.786Z,21.34
2022-10-05T10:04:38.535Z,22.03
2022-10-05T10:07:50.234Z,22.11
2022-10-05T10:11:10.375Z,22.05
2022-10-05T10:14:23.972Z,22.16
2022-10-05T10:17:44.285Z,22.29
2022-10-05T10:21:04.646Z,22.66
2022-10-05T10:24:15.220Z,22.25
2022-10-05T10:27:16.624Z,22.62
2022-10-05T10:30:36.769Z,22.87
2022-10-05T10:33:38.074Z,23.54
2022-10-05T10:36:57.752Z,23.60
2022-10-05T10:40:08.421Z,22.81
2022-10-05T10:43:28.407Z,23.84
2022-10-05T10:46:45.243Z,24.88
2022-10-05T10:49:46.577Z,25.81
2022-10-05T10:53:20.458Z,26.02
2022-10-05T10:56:40.424Z,25.90
2022-10-05T10:59:50.902Z,26.16
2022-10-05T11:02:55.289Z,26.97
2022-10-05T11:05:59.669Z,27.53
2022-10-05T11:09:04.247Z,26.43
2022-10-05T11:12:08.680Z,26.65
2022-10-05T11:15:28.379Z,27.37
2022-10-05T11:18:48.540Z,26.57
2022-10-05T11:22:09.682Z,26.23
2022-10-05T11:25:16.834Z,26.69
2022-10-05T11:28:18.197Z,26.53
2022-10-05T11:31:40.308Z,24.92
2022-10-05T11:35:00.121Z,25.19
2022-10-05T11:38:13.813Z,25.10
2022-10-05T11:41:15.103Z,25.19
2022-10-05T11:44:24.600Z,24.80
2022-10-05T11:47:30.210Z,24.34
2022-10-05T11:50:33.937Z,24.01
2022-10-05T11:53:55.199Z,23.73
2022-10-05T11:56:59.001Z,23.96
2022-10-05T12:00:19.486Z,23.86
2022-10-05T12:03:39.872Z,23.97
2022-10-05T12:06:48.639Z,24.57
2022-10-05T12:10:16.804Z,24.68
2022-10-05T12:13:21.204Z,24.47
2022-10-05T12:16:31.566Z,24.48
2022-10-05T12:19:41.087Z,23.66
2022-10-05T12:22:46.750Z,24.31
2022-10-05T12:25:50.893Z,24.47
2022-10-05T12:28:57.748Z,24.49
2022-10-05T12:32:00.803Z,23.97
2022-10-05T12:35:29.998Z,24.11
2022-10-05T12:38:39.438Z,23.83
2022-10-05T12:41:56.060Z,24.53
2022-10-05T12:45:04.300Z,24.58
2022-10-05T12:48:20.825Z,24.68
2022-10-05T12:51:31.946Z,25.22
2022-10-05T12:54:36.834Z,25.29
2022-10-05T12:57:44.203Z,24.90
2022-10-05T13:00:54.573Z,24.95
2022-10-05T13:04:10.179Z,24.35
2022-10-05T13:07:20.778Z,24.26
2022-10-05T13:10:24.725Z,23.88
2022-10-05T13:13:43.485Z,23.86
2022-10-05T13:16:54.836Z,24.33
2022-10-05T13:20:03.161Z,24.17
2022-10-05T13:23:13.952Z,25.26
2022-10-05T13:26:19.439Z,26.17
2022-10-05T13:29:38.736Z,26.42
2022-10-05T13:32:48.032Z,26.93
2022-10-05T13:35:50.998Z,27.37
2022-10-05T13:38:59.686Z,27.41
2022-10-05T13:42:15.397Z,27.41
2022-10-05T13:45:20.325Z,26.87
2022-10-05T13:48:40.520Z,26.87
2022-10-05T13:51:46.381Z,26.10
2022-10-05T13:54:50.836Z,26.52
2022-10-05T13:58:07.521Z,27.02
2022-10-05T14:01:13.359Z,26.21
2022-10-05T14:04:19.828Z,27.18
2022-10-05T14:07:30.334Z,27.25
2022-10-05T14:10:38.293Z,27.54
2022-10-05T14:13:46.768Z,27.17
2022-10-05T14:16:57.998Z,27.44
2022-10-05T14:20:00.132Z,27.61
2022-10-05T14:23:02.125Z,27.55
2022-10-05T14:26:15.525Z,27.30
2022-10-05T14:29:17.764Z,26.59
2022-10-05T14:32:21.577Z,26.36
2022-10-05T14:35:41.662Z,26.17
2022-10-05T14:38:55.738Z,26.91
2022-10-05T14:41:57.142Z,26.84
2022-10-05T14:44:59.431Z,26.69
2022-10-05T14:48:01.617Z,26.84
2022-10-05T14:51:09.226Z,26.12
2022-10-05T14:54:33.937Z,26.29
2022-10-05T14:58:04.736Z,25.86
2022-10-05T15:01:39.260Z,24.87
2022-10-05T15:04:44.650Z,24.01
2022-10-05T15:07:48.257Z,23.61
2022-10-05T15:10:51.018Z,23.33
2022-10-05T15:13:52.468Z,22.89
2022-10-05T15:16:54.068Z,22.77
2022-10-05T15:19:59.214Z,22.64
2022-10-05T15:23:24.506Z,22.38
2022-10-05T15:26:40.496Z,22.17
2022-10-05T15:29:52.028Z,22.03
2022-10-05T15:32:55.430Z,21.92
2022-10-05T15:36:14.512Z,21.95
2022-10-05T15:39:28.707Z,21.70
2022-10-05T15:42:38.332Z,21.02
2022-10-05T15:46:03.048Z,20.99
2022-10-05T15:49:13.815Z,20.83
2022-10-05T15:52:23.792Z,20.45
2022-10-05T15:55:35.227Z,20.53
2022-10-05T15:58:36.540Z,20.10
2022-10-05T16:01:44.282Z,20.02
2022-10-05T16:04:55.803Z,19.92
2022-10-05T16:08:15.998Z,19.57
2022-10-05T16:11:29.920Z,19.04
2022-10-05T16:14:31.346Z,18.88
2022-10-05T16:17:41.827Z,18.29
2022-10-05T16:20:46.935Z,18.07
2022-10-05T16:23:51.293Z,17.93
2022-10-05T16:26:57.086Z,17.61
2022-10-05T16:30:28.543Z,17.45
2022-10-05T16:33:54.456Z,17.27
2022-10-05T16:37:14.838Z,17.17
2022-10-05T16:40:34.777Z,16.91
2022-10-05T16:43:42.217Z,16.73
2022-10-05T16:46:43.633Z,16.61
2022-10-05T16:49:53.707Z,16.41
2022-10-05T16:53:05.859Z,16.19
2022-10-05T16:56:14.811Z,16.01
2022-10-05T16:59:30.598Z,15.79
2022-10-05T17:02:41.196Z,15.60
2022-10-05T17:09:09.039Z,15.40
2022-10-05T17:12:22.613Z,15.21
2022-10-05T17:15:28.699Z,15.20
2022-10-05T17:18:50.338Z,15.18
2022-10-05T17:21:56.019Z,15.13
2022-10-05T17:25:00.525Z,15.02
2022-10-05T17:28:20.859Z,14.93
2022-10-05T17:31:22.503Z,14.86
2022-10-05T17:34:26.334Z,14.95
2022-10-05T17:37:27.711Z,14.91
2022-10-05T17:40:29.059Z,14.85
2022-10-05T17:43:30.866Z,14.80
2022-10-05T17:46:38.641Z,14.74
2022-10-05T17:50:12.412Z,14.60
2022-10-05T17:53:42.220Z,14.46
2022-10-05T17:56:46.697Z,14.38
2022-10-05T17:59:51.241Z,14.26
2022-10-05T18:02:53.117Z,14.23
2022-10-05T18:06:17.514Z,14.17
2022-10-05T18:09:21.885Z,14.14
2022-10-05T18:12:27.339Z,14.03
2022-10-05T18:15:28.654Z,13.94
2022-10-05T18:18:33.079Z,13.84
2022-10-05T18:21:37.050Z,13.69
2022-10-05T18:24:41.119Z,13.72
2022-10-05T18:27:42.467Z,13.68
2022-10-05T18:30:58.098Z,13.56
2022-10-05T18:34:18.458Z,13.39
2022-10-05T18:37:21.313Z,13.43
2022-10-05T18:40:34.290Z,13.35
2022-10-05T18:43:54.323Z,13.35
2022-10-05T18:47:14.209Z,13.32
2022-10-05T18:50:22.488Z,13.42
2022-10-05T18:53:38.938Z,13.32
2022-10-05T18:56:43.306Z,13.08
2022-10-05T18:59:48.149Z,12.99
2022-10-05T19:02:54.313Z,12.89
2022-10-05T19:06:08.335Z,12.77
2022-10-05T19:09:27.367Z,12.76
2022-10-05T19:12:47.558Z,12.77
2022-10-05T19:16:08.266Z,12.95
2022-10-05T19:19:12.262Z,12.91
2022-10-05T19:22:32.572Z,12.99
2022-10-05T19:25:37.346Z,12.86
2022-10-05T19:28:40.520Z,12.88
2022-10-05T19:31:55.043Z,13.06
2022-10-05T19:35:05.810Z,13.04
2022-10-05T19:38:15.199Z,13.02
2022-10-05T19:41:16.969Z,12.83
2022-10-05T19:44:30.573Z,12.87
2022-10-05T19:47:46.457Z,12.93
2022-10-05T19:50:57.626Z,12.84
2022-10-05T19:54:02.663Z,12.65
2022-10-05T19:57:04.226Z,12.50
2022-10-05T20:00:08.917Z,12.48
2022-10-05T20:03:12.099Z,12.38
2022-10-05T20:06:13.886Z,12.32
2022-10-05T20:09:19.257Z,12.38
2022-10-05T20:12:22.980Z,12.37
2022-10-05T20:15:52.990Z,12.23
2022-10-05T20:19:13.116Z,12.17
2022-10-05T20:22:23.483Z,12.19
2022-10-05T20:25:24.811Z,12.19
2022-10-05T20:28:30.060Z,12.17
2022-10-05T20:31:32.242Z,11.99
2022-10-05T20:34:35.000Z,12.01
2022-10-05T20:37:36.894Z,11.93
2022-10-05T20:40:39.916Z,11.84
2022-10-05T20:43:41.242Z,11.77
2022-10-05T20:46:42.702Z,11.68
2022-10-05T20:49:44.584Z,11.65
2022-10-05T20:52:45.973Z,11.54
2022-10-05T20:55:47.293Z,11.58
2022-10-05T20:58:48.933Z,11.52
2022-10-05T21:01:50.501Z,11.41
2022-10-05T21:04:51.995Z,11.34
2022-10-05T21:07:53.384Z,11.31
2022-10-05T21:10:54.792Z,11.26
2022-10-05T21:13:56.297Z,11.19
2022-10-05T21:16:57.639Z,11.20
2022-10-05T21:19:59.909Z,11.17
2022-10-05T21:23:01.250Z,11.15
2022-10-05T21:26:02.578Z,11.19
2022-10-05T21:29:05.973Z,11.11
2022-10-05T21:32:11.981Z,11.14
2022-10-05T21:35:13.483Z,11.07
2022-10-05T21:38:14.879Z,11.02
2022-10-05T21:41:16.273Z,10.95
2022-10-05T21:44:18.169Z,10.94
2022-10-05T21:47:19.524Z,10.84
2022-10-05T21:50:20.869Z,10.83
2022-10-05T21:53:23.057Z,10.76
2022-10-05T21:56:25.276Z,10.78
2022-10-05T21:59:27.726Z,10.66
2022-10-05T22:02:29.118Z,10.63
2022-10-05T22:05:30.530Z,10.66
2022-10-05T22:08:32.514Z,10.59
2022-10-05T22:11:34.196Z,10.60
2022-10-05T22:14:35.515Z,10.50
2022-10-05T22:17:36.958Z,10.54
2022-10-05T22:20:38.313Z,10.44
2022-10-05T22:23:40.134Z,10.43
2022-10-05T22:26:41.812Z,10.36
2022-10-05T22:29:43.162Z,10.40
2022-10-05T22:32:44.635Z,10.40
2022-10-05T22:35:45.984Z,10.47
2022-10-05T22:38:47.722Z,10.47
2022-10-05T22:41:49.749Z,10.46
2022-10-05T22:44:51.090Z,10.41
2022-10-05T22:47:52.425Z,10.37
2022-10-05T22:50:53.807Z,10.37
2022-10-05T22:53:55.142Z,10.36
2022-10-05T22:56:56.559Z,10.32
2022-10-05T22:59:57.906Z,10.26
2022-10-05T23:02:59.241Z,10.18
2022-10-05T23:06:03.125Z,10.16
2022-10-05T23:09:04.651Z,10.11
2022-10-05T23:12:06.122Z,10.12
2022-10-05T23:15:07.775Z,10.10
2022-10-05T23:18:09.125Z,10.00
2022-10-05T23:21:10.580Z,9.98
2022-10-05T23:24:11.930Z,9.93
2022-10-05T23:27:13.309Z,9.92
2022-10-05T23:30:14.791Z,9.92
2022-10-05T23:33:16.151Z,9.93
2022-10-05T23:36:18.321Z,9.87
2022-10-05T23:39:19.645Z,9.82
2022-10-05T23:42:21.163Z,9.77
2022-10-05T23:45:22.485Z,9.73
2022-10-05T23:48:24.885Z,9.71
2022-10-05T23:51:26.518Z,9.74
2022-10-05T23:54:27.881Z,9.70
2022-10-05T23:57:29.248Z,9.70
